Time;durP1;ratioP1;P1;durP2;ratioP2;P2;SDS_P1;SDS_P2;PMS_P1;PMS_P2;Temp;Humidity;BMP_temperature;BMP_pressure;BME280_temperature;BME280_humidity;BME280_pressure;Samples;Min_cycle;Max_cycle;Signal;HPM_P1;HPM_P2
2022/04/04 00:00:13;;;;;;;0.10;0.10;;;1.40;1.00;12.80;88045.00;;;;5010981;28;20527;-72
2022/04/04 00:02:42;;;;;;;0.10;0.10;;;1.40;1.00;12.80;88045.00;;;;5031985;28;20229;-73
2022/04/04 00:05:12;;;;;;;0.20;0.20;;;1.40;1.00;12.80;88045.00;;;;5017028;28;20230;-72
2022/04/04 00:07:40;;;;;;;0.10;0.10;;;1.40;1.00;12.80;88045.00;;;;5011912;28;20196;-71
2022/04/04 00:10:09;;;;;;;0.10;0.10;;;1.50;1.00;12.80;88045.00;;;;5010278;28;20202;-72
2022/04/04 00:12:37;;;;;;;0.10;0.10;;;1.50;1.00;12.80;88045.00;;;;5011947;28;20202;-72
2022/04/04 00:15:06;;;;;;;0.10;0.10;;;1.50;1.00;12.80;88045.00;;;;5014492;28;20224;-72
2022/04/04 00:17:34;;;;;;;0.20;0.20;;;1.50;1.00;12.80;88045.00;;;;5016435;28;20665;-72
2022/04/04 00:20:04;;;;;;;0.10;0.10;;;1.60;1.00;12.80;88045.00;;;;5012093;28;20192;-72
2022/04/04 00:22:34;;;;;;;0.17;0.17;;;1.60;99.90;12.80;88045.00;;;;5012181;28;20215;-72
2022/04/04 00:25:02;;;;;;;0.10;0.10;;;1.60;1.00;12.80;88045.00;;;;5011639;28;20273;-71
2022/04/04 00:27:30;;;;;;;0.10;0.10;;;1.70;1.00;12.80;88045.00;;;;5011579;28;20188;-74
2022/04/04 00:29:58;;;;;;;0.10;0.10;;;1.60;1.00;12.80;88045.00;;;;5010772;28;20200;-75
2022/04/04 00:32:26;;;;;;;0.10;0.10;;;1.70;1.00;12.80;88045.00;;;;5024604;28;20191;-71
2022/04/04 00:34:54;;;;;;;0.10;0.10;;;1.70;1.00;12.80;88045.00;;;;5013570;28;20226;-72
2022/04/04 00:37:23;;;;;;;0.13;0.13;;;1.70;1.00;12.80;88045.00;;;;5012003;28;20187;-72
2022/04/04 00:39:52;;;;;;;0.10;0.10;;;1.80;1.00;12.80;88045.00;;;;5016701;28;20198;-72
2022/04/04 00:42:20;;;;;;;0.10;0.10;;;1.80;1.00;12.80;88045.00;;;;5017132;28;20218;-75
2022/04/04 00:44:51;;;;;;;0.10;0.10;;;1.70;1.00;12.80;88045.00;;;;5024518;28;20748;-72
2022/04/04 00:47:19;;;;;;;0.10;0.10;;;1.70;1.00;12.80;88045.00;;;;5020250;28;20192;-72
2022/04/04 00:49:48;;;;;;;0.10;0.10;;;1.70;1.00;12.80;88045.00;;;;5018869;28;20192;-71
2022/04/04 00:52:16;;;;;;;0.10;0.10;;;1.60;1.00;12.80;88045.00;;;;5016937;28;20200;-71
2022/04/04 00:54:45;;;;;;;0.10;0.10;;;1.60;1.00;12.80;88045.00;;;;5025711;28;20314;-71
2022/04/04 00:57:14;;;;;;;0.10;0.10;;;1.70;1.00;12.80;88045.00;;;;4998149;28;20193;-71
2022/04/04 00:59:43;;;;;;;0.10;0.10;;;1.70;1.00;12.80;88045.00;;;;4996654;28;20203;-71
2022/04/04 01:02:11;;;;;;;0.10;0.10;;;1.60;1.00;12.80;88045.00;;;;4995772;28;20251;-72
2022/04/04 01:04:39;;;;;;;0.10;0.10;;;1.50;1.00;12.80;88045.00;;;;4994186;28;20231;-71
2022/04/04 01:07:07;;;;;;;0.10;0.10;;;1.50;1.00;12.80;88045.00;;;;4995170;28;20196;-71
2022/04/04 01:09:35;;;;;;;0.10;0.10;;;1.40;1.00;12.80;88045.00;;;;4998173;28;20615;-72
2022/04/04 01:12:06;;;;;;;0.10;0.10;;;1.50;1.00;12.80;88045.00;;;;5017621;28;20374;-72
2022/04/04 01:14:37;;;;;;;0.10;0.10;;;1.40;1.00;12.80;88045.00;;;;5014524;28;20212;-71
2022/04/04 01:17:06;;;;;;;0.10;0.10;;;1.30;1.00;12.80;88045.00;;;;5002212;28;20215;-71
2022/04/04 01:19:36;;;;;;;0.13;0.13;;;1.30;99.90;12.80;88045.00;;;;5000708;28;20201;-71
2022/04/04 01:22:08;;;;;;;0.17;0.17;;;1.20;99.90;12.80;88045.00;;;;5012513;28;20216;-73
2022/04/04 01:24:39;;;;;;;0.10;0.10;;;1.20;99.90;12.80;88045.00;;;;5014758;28;20303;-73
2022/04/04 01:27:10;;;;;;;0.15;0.15;;;1.20;1.00;12.80;88045.00;;;;5014103;28;20196;-74
2022/04/04 01:29:39;;;;;;;0.10;0.10;;;1.10;1.00;12.80;88045.00;;;;5015457;28;20206;-71
2022/04/04 01:32:11;;;;;;;0.13;0.13;;;1.10;1.00;12.80;88045.00;;;;5015351;28;20199;-71
2022/04/04 01:34:39;;;;;;;0.10;0.10;;;1.00;1.00;12.80;88045.00;;;;4999648;28;20216;-71
2022/04/04 01:37:08;;;;;;;0.10;0.10;;;1.00;1.00;12.80;88045.00;;;;4994332;28;20196;-70
2022/04/04 01:39:36;;;;;;;0.10;0.10;;;1.00;4.30;12.80;88045.00;;;;5001596;28;20250;-71
2022/04/04 01:42:06;;;;;;;0.10;0.10;;;1.00;95.00;12.80;88045.00;;;;5005702;28;20204;-70
2022/04/04 01:44:34;;;;;;;0.10;0.10;;;0.90;99.90;12.80;88045.00;;;;4995297;28;20231;-72
2022/04/04 01:47:03;;;;;;;0.10;0.10;;;0.90;99.90;12.80;88045.00;;;;4998478;28;20661;-70
2022/04/04 01:49:31;;;;;;;0.10;0.10;;;1.00;99.90;12.80;88045.00;;;;5013253;28;20203;-70
2022/04/04 01:51:59;;;;;;;0.20;0.20;;;1.00;1.00;12.80;88045.00;;;;5014303;28;20202;-71
2022/04/04 01:54:28;;;;;;;0.20;0.20;;;0.90;1.00;12.80;88045.00;;;;5014242;28;20187;-71
2022/04/04 01:57:07;;;;;;;0.20;0.20;;;0.90;1.00;12.80;88045.00;;;;5012856;28;20261;-71
2022/04/04 01:59:35;;;;;;;0.20;0.20;;;0.80;1.00;12.80;88045.00;;;;5013172;28;20661;-72
2022/04/04 02:02:04;;;;;;;0.20;0.20;;;0.80;70.60;12.80;88045.00;;;;5024386;28;20203;-72
2022/04/04 02:04:32;;;;;;;0.10;0.10;;;0.90;24.30;12.80;88045.00;;;;5013444;28;20632;-72
2022/04/04 02:07:00;;;;;;;0.20;0.20;;;0.80;80.30;12.80;88045.00;;;;5013038;28;20200;-72
2022/04/04 02:09:28;;;;;;;0.20;0.20;;;0.80;99.90;12.80;88045.00;;;;5000572;28;20200;-72
2022/04/04 02:11:56;;;;;;;0.10;0.10;;;0.70;99.90;12.80;88045.00;;;;5012999;28;20195;-74
2022/04/04 02:14:26;;;;;;;0.20;0.20;;;0.70;99.90;12.80;88045.00;;;;4998307;28;20196;-72
2022/04/04 02:16:54;;;;;;;0.15;0.15;;;0.70;99.90;12.80;88045.00;;;;5001012;28;20665;-72
2022/04/04 02:19:22;;;;;;;0.10;0.10;;;0.70;99.90;12.80;88045.00;;;;5023667;28;20204;-73
2022/04/04 02:21:50;;;;;;;0.10;0.10;;;0.70;99.90;12.80;88045.00;;;;5014066;28;20199;-72
2022/04/04 02:24:18;;;;;;;0.20;0.20;;;0.70;99.90;12.80;88045.00;;;;5013614;28;20220;-72
2022/04/04 02:26:46;;;;;;;0.13;0.13;;;0.60;99.90;12.80;88045.00;;;;5013681;28;20231;-72
2022/04/04 02:29:14;;;;;;;0.10;0.10;;;0.60;1.00;12.80;88045.00;;;;5013430;28;20199;-72
2022/04/04 02:31:44;;;;;;;0.13;0.13;;;0.60;1.00;12.80;88045.00;;;;5005014;28;20196;-72
2022/04/04 02:34:13;;;;;;;0.10;0.10;;;0.60;1.00;12.80;88045.00;;;;4992492;28;20213;-72
2022/04/04 02:36:42;;;;;;;0.13;0.13;;;0.50;1.00;12.80;88045.00;;;;5007393;28;20661;-72
2022/04/04 02:39:10;;;;;;;0.20;0.20;;;0.50;1.00;12.80;88045.00;;;;4995805;28;20554;-73
2022/04/04 02:41:38;;;;;;;0.10;0.10;;;0.50;99.90;12.80;88045.00;;;;4999261;28;20204;-73
2022/04/04 02:44:06;;;;;;;0.10;0.10;;;0.40;99.90;12.80;88045.00;;;;5020542;28;20273;-73
2022/04/04 02:46:35;;;;;;;0.13;0.13;;;0.40;99.90;12.80;88045.00;;;;5012955;28;20204;-72
2022/04/04 02:49:05;;;;;;;0.20;0.20;;;0.40;99.90;12.80;88045.00;;;;5013022;28;20187;-74
2022/04/04 02:51:33;;;;;;;0.10;0.10;;;0.40;1.00;12.80;88045.00;;;;5013140;28;20668;-72
2022/04/04 02:54:01;;;;;;;0.20;0.20;;;0.40;1.00;12.80;88045.00;;;;5009647;28;20200;-71
2022/04/04 02:56:29;;;;;;;0.10;0.10;;;0.40;1.00;12.80;88045.00;;;;5009720;28;20716;-71
2022/04/04 02:59:01;;;;;;;0.10;0.10;;;0.40;1.00;12.80;88045.00;;;;5012391;28;20211;-71
2022/04/04 03:01:30;;;;;;;0.10;0.10;;;0.40;1.00;12.80;88045.00;;;;5024252;28;20187;-74
2022/04/04 03:03:58;;;;;;;0.10;0.10;;;0.40;99.90;12.80;88045.00;;;;5014634;28;20592;-74
2022/04/04 03:06:29;;;;;;;0.10;0.10;;;0.40;99.90;12.80;88045.00;;;;5001372;28;20236;-73
2022/04/04 03:08:57;;;;;;;0.20;0.20;;;0.40;81.00;12.80;88045.00;;;;4993564;28;20207;-74
2022/04/04 03:11:25;;;;;;;0.20;0.20;;;0.40;99.90;12.80;88045.00;;;;4994132;28;20605;-73
2022/04/04 03:13:54;;;;;;;0.20;0.20;;;0.40;99.90;12.80;88045.00;;;;4996427;28;20210;-74
2022/04/04 03:16:23;;;;;;;0.10;0.10;;;0.40;11.30;12.80;88045.00;;;;5019807;28;20237;-74
2022/04/04 03:18:51;;;;;;;0.15;0.15;;;0.40;1.00;12.80;88045.00;;;;5018069;28;20471;-74
2022/04/04 03:21:19;;;;;;;0.20;0.20;;;0.40;1.00;12.80;88045.00;;;;5016394;28;20191;-72
2022/04/04 03:23:49;;;;;;;0.10;0.10;;;0.50;1.00;12.80;88045.00;;;;5018696;28;20595;-74
2022/04/04 03:26:17;;;;;;;0.20;0.20;;;0.40;1.00;12.80;88045.00;;;;5018859;28;20227;-74
2022/04/04 03:28:46;;;;;;;0.10;0.10;;;0.40;1.00;12.80;88045.00;;;;5015803;28;20204;-74
2022/04/04 03:31:14;;;;;;;0.13;0.13;;;0.50;1.00;12.80;88045.00;;;;5009795;28;20206;-74
2022/04/04 03:33:43;;;;;;;0.10;0.10;;;0.50;1.00;12.80;88045.00;;;;5008798;28;20203;-74
2022/04/04 03:36:11;;;;;;;0.20;0.20;;;0.50;1.00;12.80;88045.00;;;;5018540;28;20634;-73
2022/04/04 03:38:39;;;;;;;0.10;0.10;;;0.50;1.00;12.80;88045.00;;;;5013260;28;20198;-74
2022/04/04 03:41:09;;;;;;;0.20;0.20;;;0.50;99.90;12.80;88045.00;;;;5010773;28;20322;-73
2022/04/04 03:43:37;;;;;;;0.20;0.20;;;0.50;99.90;12.80;88045.00;;;;5014537;28;20215;-73
2022/04/04 03:46:05;;;;;;;0.10;0.10;;;0.50;1.00;12.80;88045.00;;;;5003662;28;20215;-73
2022/04/04 03:48:33;;;;;;;0.20;0.20;;;0.50;1.00;12.80;88045.00;;;;4996311;28;20192;-73
2022/04/04 03:51:01;;;;;;;0.10;0.10;;;0.40;1.00;12.80;88045.00;;;;5010541;28;20202;-73
2022/04/04 03:53:29;;;;;;;0.10;0.10;;;0.40;99.90;12.80;88045.00;;;;5011711;28;20200;-73
2022/04/04 03:55:57;;;;;;;0.10;0.10;;;0.40;1.00;12.80;88045.00;;;;5009131;28;20228;-72
2022/04/04 03:58:27;;;;;;;0.20;0.20;;;0.40;1.00;12.80;88045.00;;;;5010125;28;20681;-72
2022/04/04 04:00:55;;;;;;;0.10;0.10;;;0.40;1.00;12.80;88045.00;;;;5013732;28;20192;-72
2022/04/04 04:03:23;;;;;;;0.20;0.20;;;0.40;1.00;12.80;88045.00;;;;5011379;28;20684;-72
2022/04/04 04:06:11;;;;;;;0.15;0.15;;;0.30;1.00;12.80;88045.00;;;;5023934;28;20222;-73
2022/04/04 04:08:41;;;;;;;0.10;0.10;;;0.30;1.00;12.80;88045.00;;;;5012729;28;20246;-72
2022/04/04 04:11:09;;;;;;;0.20;0.20;;;0.30;1.00;12.80;88045.00;;;;4995998;28;20270;-73
2022/04/04 04:13:38;;;;;;;0.20;0.20;;;0.30;1.00;12.80;88045.00;;;;5014889;28;20252;-72
2022/04/04 04:16:09;;;;;;;0.10;0.10;;;0.30;1.00;12.80;88045.00;;;;5008738;28;20226;-72
2022/04/04 04:18:37;;;;;;;0.15;0.15;;;0.30;1.00;12.80;88045.00;;;;4997767;28;20231;-72
2022/04/04 04:21:06;;;;;;;0.20;0.20;;;0.40;99.90;12.80;88045.00;;;;5014520;28;20207;-73
2022/04/04 04:23:43;;;;;;;0.20;0.20;;;0.30;99.90;12.80;88045.00;;;;5032464;28;20264;-72
2022/04/04 04:26:13;;;;;;;0.20;0.20;;;0.30;99.90;12.80;88045.00;;;;5035386;28;20226;-72
2022/04/04 04:28:46;;;;;;;0.10;0.10;;;0.30;99.90;12.80;88045.00;;;;5020444;28;20203;-73
2022/04/04 04:31:17;;;;;;;0.20;0.20;;;0.30;99.90;12.80;88045.00;;;;5014664;28;20195;-72
2022/04/04 04:33:45;;;;;;;0.20;0.20;;;0.40;73.50;12.80;88045.00;;;;5015895;28;20196;-72
2022/04/04 04:36:13;;;;;;;0.20;0.20;;;0.30;99.90;12.80;88045.00;;;;5011897;28;20215;-72
2022/04/04 04:38:41;;;;;;;0.20;0.20;;;0.30;99.90;12.80;88045.00;;;;5004024;28;20207;-72
2022/04/04 04:41:09;;;;;;;0.20;0.20;;;0.30;99.90;12.80;88045.00;;;;4995101;28;20690;-72
2022/04/04 04:43:38;;;;;;;0.20;0.20;;;0.30;99.90;12.80;88045.00;;;;5008528;28;20285;-72
2022/04/04 04:46:07;;;;;;;0.20;0.20;;;0.30;99.90;12.80;88045.00;;;;5015032;28;20223;-72
2022/04/04 04:48:35;;;;;;;0.20;0.20;;;0.30;99.90;12.80;88045.00;;;;5016414;28;20219;-72
2022/04/04 04:51:03;;;;;;;0.20;0.20;;;0.30;99.90;12.80;88045.00;;;;5015626;28;20191;-73
2022/04/04 04:53:32;;;;;;;0.20;0.20;;;0.30;99.90;12.80;88045.00;;;;4998899;28;20196;-71
2022/04/04 04:56:00;;;;;;;0.20;0.20;;;0.30;99.90;12.80;88045.00;;;;5014364;28;20228;-74
2022/04/04 04:58:29;;;;;;;0.10;0.10;;;0.30;99.90;12.80;88045.00;;;;4999550;28;20557;-73
2022/04/04 05:00:57;;;;;;;0.20;0.20;;;0.30;99.90;12.80;88045.00;;;;5002593;28;20606;-73
2022/04/04 05:03:27;;;;;;;0.10;0.10;;;0.30;99.90;12.80;88045.00;;;;4996485;28;20658;-72
2022/04/04 05:05:55;;;;;;;0.15;0.15;;;0.30;1.00;12.80;88045.00;;;;4995852;28;21057;-73
2022/04/04 05:08:24;;;;;;;0.10;0.10;;;0.20;1.00;12.80;88045.00;;;;5000533;28;20238;-73
2022/04/04 05:10:53;;;;;;;0.20;0.20;;;0.30;1.00;12.80;88045.00;;;;5014181;28;20198;-73
2022/04/04 05:13:22;;;;;;;0.20;0.20;;;0.20;1.00;12.80;88045.00;;;;5010153;28;20195;-73
2022/04/04 05:15:51;;;;;;;0.20;0.20;;;0.20;1.00;12.80;88045.00;;;;5013556;28;20226;-73
2022/04/04 05:18:19;;;;;;;0.20;0.20;;;0.30;1.00;12.80;88045.00;;;;5005911;28;20280;-72
2022/04/04 05:20:48;;;;;;;0.20;0.20;;;0.30;1.00;12.80;88045.00;;;;4997957;28;20200;-72
2022/04/04 05:23:16;;;;;;;0.13;0.13;;;0.30;99.90;12.80;88045.00;;;;5012227;28;20191;-72
2022/04/04 05:25:45;;;;;;;0.15;0.15;;;0.30;99.90;12.80;88045.00;;;;5013427;28;20227;-72
2022/04/04 05:28:13;;;;;;;0.20;0.20;;;0.30;99.90;12.80;88045.00;;;;5006059;28;20591;-72
2022/04/04 05:30:41;;;;;;;0.17;0.17;;;0.40;1.00;12.80;88045.00;;;;4995265;28;20300;-72
2022/04/04 05:33:10;;;;;;;0.20;0.20;;;0.40;1.00;12.80;88045.00;;;;5008612;28;20735;-73
2022/04/04 05:35:38;;;;;;;0.20;0.20;;;0.40;1.00;12.80;88045.00;;;;5014506;28;20307;-73
2022/04/04 05:38:07;;;;;;;0.20;0.20;;;0.50;1.00;12.80;88045.00;;;;5014554;28;20188;-73
2022/04/04 05:40:35;;;;;;;0.20;0.20;;;0.50;99.90;12.80;88045.00;;;;5014572;28;20195;-73
2022/04/04 05:43:03;;;;;;;0.20;0.20;;;0.40;1.00;12.80;88045.00;;;;5013286;28;20199;-72
2022/04/04 05:45:31;;;;;;;0.20;0.20;;;0.50;99.90;12.80;88045.00;;;;5014490;28;20227;-72
2022/04/04 05:47:59;;;;;;;0.20;0.20;;;0.50;99.90;12.80;88045.00;;;;5014462;28;20192;-73
2022/04/04 05:50:27;;;;;;;0.20;0.20;;;0.50;99.90;12.80;88045.00;;;;5014767;28;20191;-73
2022/04/04 05:52:55;;;;;;;0.10;0.10;;;0.40;1.00;12.80;88045.00;;;;5014660;28;20191;-73
2022/04/04 05:55:25;;;;;;;0.10;0.10;;;0.40;1.00;12.80;88045.00;;;;5013443;28;20875;-73
2022/04/04 05:57:53;;;;;;;0.20;0.20;;;0.50;1.00;12.80;88045.00;;;;5014973;28;20199;-73
2022/04/04 06:00:21;;;;;;;0.13;0.13;;;0.50;1.00;12.80;88045.00;;;;5014916;28;20207;-73
2022/04/04 06:02:49;;;;;;;0.20;0.20;;;0.50;1.00;12.80;88045.00;;;;5014822;28;20729;-73
2022/04/04 06:05:18;;;;;;;0.20;0.20;;;0.50;1.00;12.80;88045.00;;;;5014366;28;20223;-73
2022/04/04 06:07:46;;;;;;;0.20;0.20;;;0.50;1.00;12.80;88045.00;;;;4996474;28;20196;-73
2022/04/04 06:10:15;;;;;;;0.13;0.13;;;0.50;1.00;12.80;88045.00;;;;5014587;28;20191;-73
2022/04/04 06:12:45;;;;;;;0.10;0.10;;;0.60;1.00;12.80;88045.00;;;;5014127;28;20196;-73
2022/04/04 06:15:15;;;;;;;0.10;0.10;;;0.60;1.00;12.80;88045.00;;;;5014113;28;20605;-73
2022/04/04 06:17:44;;;;;;;0.10;0.10;;;0.80;99.90;12.80;88045.00;;;;5014090;28;20286;-72
2022/04/04 06:20:14;;;;;;;0.13;0.13;;;0.80;1.00;12.80;88045.00;;;;5013873;28;20196;-73
2022/04/04 06:22:43;;;;;;;0.20;0.20;;;0.80;1.00;12.80;88045.00;;;;5013789;28;20192;-73
2022/04/04 06:25:13;;;;;;;0.10;0.10;;;1.00;99.90;12.80;88045.00;;;;5014352;28;20251;-73
2022/04/04 06:27:42;;;;;;;0.20;0.20;;;1.00;1.00;12.80;88045.00;;;;5014382;28;20255;-73
2022/04/04 06:30:13;;;;;;;0.20;0.20;;;1.10;99.90;12.80;88045.00;;;;5014060;28;20215;-73
2022/04/04 06:32:43;;;;;;;0.10;0.10;;;1.20;99.90;12.80;88045.00;;;;5014078;28;20204;-73
2022/04/04 06:35:12;;;;;;;0.15;0.15;;;1.30;99.90;12.80;88045.00;;;;5013522;28;20232;-73
2022/04/04 06:37:40;;;;;;;0.20;0.20;;;1.40;99.90;12.80;88045.00;;;;5013599;28;20657;-73
2022/04/04 06:40:10;;;;;;;0.20;0.20;;;1.40;34.00;12.80;88045.00;;;;5028425;28;20207;-73
2022/04/04 06:42:40;;;;;;;0.10;0.10;;;1.50;95.80;12.80;88045.00;;;;5013953;28;20195;-72
2022/04/04 06:45:12;;;;;;;0.17;0.17;;;1.60;95.10;12.80;88045.00;;;;5014229;28;20219;-72
2022/04/04 06:47:41;;;;;;;0.10;0.10;;;1.70;1.00;12.80;88045.00;;;;5017596;28;20537;-72
2022/04/04 06:50:10;;;;;;;0.10;0.10;;;1.80;1.00;12.80;88045.00;;;;5018736;28;20192;-73
2022/04/04 06:52:38;;;;;;;0.17;0.17;;;1.80;1.00;12.80;88045.00;;;;5018475;28;20204;-72
2022/04/04 06:55:26;;;;;;;0.10;0.10;;;1.90;1.00;12.80;88045.00;;;;5017755;28;20226;-73
2022/04/04 06:57:54;;;;;;;0.10;0.10;;;2.00;1.00;12.80;88045.00;;;;5017345;28;20202;-72
2022/04/04 07:00:23;;;;;;;0.10;0.10;;;2.10;1.00;12.80;88045.00;;;;5013400;28;20194;-72
2022/04/04 07:02:53;;;;;;;0.10;0.10;;;2.30;99.90;12.80;88045.00;;;;5013746;28;20223;-73
2022/04/04 07:05:21;;;;;;;0.10;0.10;;;2.30;1.00;12.80;88045.00;;;;5013713;28;20262;-73
2022/04/04 07:07:49;;;;;;;0.10;0.10;;;2.40;99.90;12.80;88045.00;;;;5013421;28;20228;-73
2022/04/04 07:10:17;;;;;;;0.20;0.20;;;2.30;99.90;12.80;88045.00;;;;5013953;28;20207;-73
2022/04/04 07:12:45;;;;;;;0.10;0.10;;;2.30;99.90;12.80;88045.00;;;;5013103;28;20234;-73
2022/04/04 07:15:13;;;;;;;0.10;0.10;;;2.40;99.90;12.80;88045.00;;;;5013015;28;20243;-73
2022/04/04 07:17:44;;;;;;;0.10;0.10;;;2.40;99.90;12.80;88045.00;;;;5012678;28;20196;-73
2022/04/04 07:20:13;;;;;;;0.10;0.10;;;2.60;99.90;12.80;88045.00;;;;5012598;28;20238;-72
2022/04/04 07:22:43;;;;;;;0.10;0.10;;;2.50;1.00;12.80;88045.00;;;;5012874;28;20192;-72
2022/04/04 07:25:14;;;;;;;0.20;0.20;;;2.60;1.00;12.80;88045.00;;;;5013095;28;20838;-72
2022/04/04 07:27:45;;;;;;;0.13;0.13;;;2.60;1.00;12.80;88045.00;;;;5013250;28;20257;-73
2022/04/04 07:30:17;;;;;;;0.10;0.10;;;2.80;1.00;12.80;88045.00;;;;5013479;28;20200;-72
2022/04/04 07:32:48;;;;;;;0.10;0.10;;;2.90;1.00;12.80;88045.00;;;;5013116;28;20283;-72
2022/04/04 07:35:19;;;;;;;0.10;0.10;;;3.00;1.00;12.80;88045.00;;;;5012920;28;20215;-72
2022/04/04 07:37:49;;;;;;;0.15;0.15;;;3.00;1.00;12.80;88045.00;;;;5012657;28;20207;-73
2022/04/04 07:40:20;;;;;;;0.10;0.10;;;3.10;11.70;12.80;88045.00;;;;5013065;28;20211;-72
2022/04/04 07:42:51;;;;;;;0.10;0.10;;;3.10;1.00;12.80;88045.00;;;;5013368;28;20192;-73
2022/04/04 07:45:19;;;;;;;0.13;0.13;;;3.20;1.00;12.80;88045.00;;;;5013265;28;20242;-72
2022/04/04 07:47:50;;;;;;;0.10;0.10;;;3.20;1.00;12.80;88045.00;;;;5012818;28;20215;-72
2022/04/04 07:50:19;;;;;;;0.10;0.10;;;3.20;1.00;12.80;88045.00;;;;5013216;28;20192;-73
2022/04/04 07:52:47;;;;;;;0.10;0.10;;;3.10;1.00;12.80;88045.00;;;;5018271;28;20191;-72
2022/04/04 07:55:15;;;;;;;0.10;0.10;;;3.30;1.00;12.80;88045.00;;;;5019239;28;20225;-72
2022/04/04 07:57:45;;;;;;;0.10;0.10;;;3.40;1.00;12.80;88045.00;;;;5015398;28;20195;-72
2022/04/04 08:00:17;;;;;;;0.10;0.10;;;3.50;1.00;12.80;88045.00;;;;5017452;28;20215;-72
2022/04/04 08:02:47;;;;;;;0.10;0.10;;;3.60;99.90;12.80;88045.00;;;;5015247;28;20199;-72
2022/04/04 08:05:16;;;;;;;0.10;0.10;;;3.50;99.90;12.80;88045.00;;;;5016093;28;20781;-71
2022/04/04 08:07:47;;;;;;;0.10;0.10;;;3.60;99.90;12.80;88045.00;;;;5016520;28;20192;-72
2022/04/04 08:10:16;;;;;;;0.10;0.10;;;3.70;99.90;12.80;88045.00;;;;5016750;28;20327;-71
2022/04/04 08:12:45;;;;;;;0.20;0.20;;;3.80;1.00;12.80;88045.00;;;;5013010;28;20195;-72
2022/04/04 08:15:13;;;;;;;0.10;0.10;;;3.90;1.00;12.80;88045.00;;;;5011108;28;20215;-72
2022/04/04 08:17:41;;;;;;;0.10;0.10;;;3.80;1.00;12.80;88045.00;;;;5011987;28;20196;-72
2022/04/04 08:20:12;;;;;;;0.10;0.10;;;3.80;1.00;12.80;88045.00;;;;5011647;28;20198;-71
2022/04/04 08:22:42;;;;;;;0.10;0.10;;;4.00;1.00;12.80;88045.00;;;;5011724;28;20206;-73
2022/04/04 08:25:12;;;;;;;0.10;0.10;;;4.00;1.00;12.80;88045.00;;;;5011280;28;20700;-73
2022/04/04 08:27:41;;;;;;;0.10;0.10;;;4.10;1.00;12.80;88045.00;;;;5011732;28;20224;-70
2022/04/04 08:30:11;;;;;;;0.10;0.10;;;4.10;1.00;12.80;88045.00;;;;5012030;28;20191;-74
2022/04/04 08:32:41;;;;;;;0.10;0.10;;;4.10;1.00;12.80;88045.00;;;;5012099;28;20202;-72
2022/04/04 08:35:13;;;;;;;0.10;0.10;;;4.20;1.00;12.80;88045.00;;;;5011703;28;20226;-75
2022/04/04 08:37:44;;;;;;;0.10;0.10;;;4.30;99.90;12.80;88045.00;;;;5011823;28;20187;-72
2022/04/04 08:40:18;;;;;;;0.10;0.10;;;4.40;57.50;12.80;88045.00;;;;5012382;28;20833;-72
2022/04/04 08:42:46;;;;;;;0.10;0.10;;;4.30;38.50;12.80;88045.00;;;;5012212;28;20279;-72
2022/04/04 08:45:14;;;;;;;0.10;0.10;;;4.30;1.00;12.80;88045.00;;;;5011454;28;20613;-72
2022/04/04 08:47:42;;;;;;;0.10;0.10;;;4.30;1.00;12.80;88045.00;;;;5011672;28;20215;-72
2022/04/04 08:50:12;;;;;;;0.10;0.10;;;4.40;1.00;12.80;88045.00;;;;5012040;28;20267;-72
2022/04/04 08:52:43;;;;;;;0.10;0.10;;;4.40;1.00;12.80;88045.00;;;;5011948;28;20188;-72
2022/04/04 08:55:15;;;;;;;0.10;0.10;;;4.30;1.00;12.80;88045.00;;;;5011765;28;20220;-72
2022/04/04 08:57:43;;;;;;;0.10;0.10;;;4.30;1.00;12.80;88045.00;;;;5011518;28;20199;-73
2022/04/04 09:00:12;;;;;;;0.10;0.10;;;4.40;1.00;12.80;88045.00;;;;5010747;28;20184;-71
2022/04/04 09:02:58;;;;;;;0.10;0.10;;;4.50;1.00;12.80;88045.00;;;;5012452;28;20204;-72
2022/04/04 09:05:29;;;;;;;0.10;0.10;;;4.60;1.00;12.80;88045.00;;;;5015777;28;20212;-73
2022/04/04 09:08:04;;;;;;;0.10;0.10;;;4.60;1.00;12.80;88045.00;;;;5015780;28;20587;-73
2022/04/04 09:10:36;;;;;;;0.10;0.10;;;4.60;1.00;12.80;88045.00;;;;5014294;28;20199;-73
2022/04/04 09:13:09;;;;;;;0.10;0.10;;;4.50;1.00;12.80;88045.00;;;;5015814;28;20689;-72
2022/04/04 09:15:53;;;;;;;0.15;0.15;;;4.50;1.00;12.80;88045.00;;;;5015532;28;20219;-74
2022/04/04 09:18:46;;;;;;;0.10;0.10;;;4.60;1.00;12.80;88045.00;;;;5015196;28;20677;-72
2022/04/04 09:21:34;;;;;;;0.10;0.10;;;4.40;1.00;12.80;88045.00;;;;5015156;28;20200;-73
2022/04/04 09:24:10;;;;;;;0.10;0.10;;;4.40;1.00;12.80;88045.00;;;;5015163;28;20200;-73
2022/04/04 09:26:41;;;;;;;0.10;0.10;;;4.40;1.00;12.80;88045.00;;;;5014912;28;20218;-73
2022/04/04 09:29:17;;;;;;;0.10;0.10;;;4.30;1.00;12.80;88045.00;;;;5015504;28;20267;-72
2022/04/04 09:31:58;;;;;;;0.10;0.10;;;4.40;1.00;12.80;88045.00;;;;5015427;28;20657;-73
2022/04/04 09:34:27;;;;;;;0.10;0.10;;;4.40;1.00;12.80;88045.00;;;;5015033;28;20192;-73
2022/04/04 09:36:58;;;;;;;0.10;0.10;;;4.50;1.00;12.80;88045.00;;;;5015430;28;20204;-72
2022/04/04 09:39:26;;;;;;;0.10;0.10;;;4.60;1.00;12.80;88045.00;;;;5015854;28;20717;-73
2022/04/04 09:41:58;;;;;;;0.15;0.15;;;4.70;1.00;12.80;88045.00;;;;5013929;28;20227;-73
2022/04/04 09:44:27;;;;;;;0.10;0.10;;;4.80;1.00;12.80;88045.00;;;;5015141;28;20192;-73
2022/04/04 09:46:55;;;;;;;0.03;0.03;;;4.80;1.00;12.80;88045.00;;;;5014447;28;20219;-73
2022/04/04 09:49:23;;;;;;;0.10;0.10;;;4.80;1.00;12.80;88045.00;;;;5015086;28;20206;-73
2022/04/04 09:51:53;;;;;;;0.10;0.10;;;4.90;99.90;12.80;88045.00;;;;5013918;28;20204;-73
2022/04/04 09:54:24;;;;;;;0.10;0.10;;;5.00;99.90;12.80;88045.00;;;;5014403;28;20279;-73
2022/04/04 09:57:09;;;;;;;0.10;0.10;;;5.20;99.90;12.80;88045.00;;;;5014675;28;20283;-72
2022/04/04 09:59:41;;;;;;;0.00;0.00;;;5.30;99.90;12.80;88045.00;;;;5014775;28;20683;-72
2022/04/04 10:02:10;;;;;;;0.10;0.10;;;5.20;99.90;12.80;88045.00;;;;5014410;28;20238;-72
2022/04/04 10:04:44;;;;;;;0.10;0.10;;;5.10;99.90;12.80;88045.00;;;;5014328;28;20758;-73
2022/04/04 10:07:17;;;;;;;0.10;0.10;;;5.10;99.90;12.80;88045.00;;;;5014148;28;20640;-72
2022/04/04 10:09:47;;;;;;;0.10;0.10;;;5.10;99.90;12.80;88045.00;;;;5015554;28;20192;-72
2022/04/04 10:12:15;;;;;;;0.00;0.00;;;5.40;99.90;12.80;88045.00;;;;5014802;28;20211;-72
2022/04/04 10:14:44;;;;;;;0.10;0.10;;;5.70;99.90;12.80;88045.00;;;;5011901;28;20231;-73
2022/04/04 10:17:17;;;;;;;0.10;0.10;;;6.00;99.90;12.80;88045.00;;;;5014146;28;20204;-72
2022/04/04 10:19:47;;;;;;;0.10;0.10;;;5.90;92.50;12.80;88045.00;;;;5014197;28;20535;-72
2022/04/04 10:22:15;;;;;;;0.10;0.10;;;5.90;73.90;12.80;88045.00;;;;5012761;28;20290;-72
2022/04/04 10:24:45;;;;;;;0.10;0.10;;;5.70;81.30;12.80;88045.00;;;;5014113;28;20219;-72
2022/04/04 10:27:16;;;;;;;0.10;0.10;;;5.90;74.20;12.80;88045.00;;;;5013629;28;20222;-72
2022/04/04 10:29:47;;;;;;;0.10;0.10;;;6.00;68.60;12.80;88045.00;;;;5012821;28;20207;-73
2022/04/04 10:32:24;;;;;;;0.10;0.10;;;5.90;62.90;12.80;88045.00;;;;5013962;28;20571;-72
2022/04/04 10:34:53;;;;;;;0.10;0.10;;;5.80;68.60;12.80;88045.00;;;;5014026;28;20215;-72
2022/04/04 10:37:23;;;;;;;0.10;0.10;;;5.60;67.70;12.80;88045.00;;;;5013442;28;20955;-72
2022/04/04 10:39:53;;;;;;;0.10;0.10;;;5.30;83.60;12.80;88045.00;;;;5012967;28;20282;-71
2022/04/04 10:42:27;;;;;;;0.03;0.03;;;5.40;99.10;12.80;88045.00;;;;5014078;28;20201;-72
2022/04/04 10:45:06;;;;;;;0.10;0.10;;;5.50;97.60;12.80;88045.00;;;;5013578;28;20302;-72
2022/04/04 10:47:37;;;;;;;0.10;0.10;;;5.50;80.60;12.80;88045.00;;;;5013387;28;20537;-72
2022/04/04 10:50:21;;;;;;;0.05;0.05;;;5.60;81.90;12.80;88045.00;;;;5013642;28;20195;-72
2022/04/04 10:52:51;;;;;;;0.03;0.03;;;5.70;82.20;12.80;88045.00;;;;5013858;28;20274;-73
2022/04/04 10:55:52;;;;;;;0.10;0.10;;;5.90;78.00;12.80;88045.00;;;;5013255;28;20227;-73
2022/04/04 10:58:24;;;;;;;0.10;0.10;;;6.10;78.80;12.80;88045.00;;;;5013494;28;20270;-73
2022/04/04 11:01:03;;;;;;;0.10;0.10;;;6.30;71.30;12.80;88045.00;;;;5013717;28;20669;-72
2022/04/04 11:03:34;;;;;;;0.10;0.10;;;6.10;54.00;12.80;88045.00;;;;5013544;28;20199;-73
2022/04/04 11:09:22;;;;;;;0.08;0.08;;;6.80;41.90;12.80;88045.00;;;;5013504;28;20630;-73
2022/04/04 11:11:55;;;;;;;0.10;0.10;;;6.60;36.80;12.80;88045.00;;;;5013431;28;20192;-72
2022/04/04 11:14:54;;;;;;;0.05;0.05;;;6.10;34.00;12.80;88045.00;;;;5013671;28;20188;-73
2022/04/04 11:17:30;;;;;;;0.10;0.10;;;6.30;38.30;12.80;88045.00;;;;5013670;28;20231;-73
2022/04/04 11:20:04;;;;;;;0.10;0.10;;;6.10;39.30;12.80;88045.00;;;;5013482;28;20195;-73
2022/04/04 11:22:36;;;;;;;0.10;0.10;;;5.90;53.40;12.80;88045.00;;;;5013549;28;20192;-73